sensor_id;sensor_type;location;lat;lon;timestamp;P1;durP1;ratioP1;P2;durP2;ratioP2
16199;SDS011;8207;52.494;4.654;2024-03-22T00:02:15;58.50;;;22.33;;
16199;SDS011;8207;52.494;4.654;2024-03-22T00:04:40;55.78;;;22.55;;
16199;SDS011;8207;52.494;4.654;2024-03-22T00:07:05;55.67;;;22.45;;
16199;SDS011;8207;52.494;4.654;2024-03-22T00:09:31;54.00;;;20.65;;
16199;SDS011;8207;52.494;4.654;2024-03-22T00:11:57;58.92;;;21.42;;
16199;SDS011;8207;52.494;4.654;2024-03-22T00:14:22;54.20;;;20.98;;
16199;SDS011;8207;52.494;4.654;2024-03-22T00:16:48;53.50;;;20.60;;
16199;SDS011;8207;52.494;4.654;2024-03-22T00:19:13;58.30;;;22.40;;
16199;SDS011;8207;52.494;4.654;2024-03-22T00:21:38;54.08;;;21.80;;
16199;SDS011;8207;52.494;4.654;2024-03-22T00:24:04;55.40;;;20.83;;
16199;SDS011;8207;52.494;4.654;2024-03-22T00:26:29;53.35;;;20.33;;
16199;SDS011;8207;52.494;4.654;2024-03-22T00:28:54;54.47;;;20.65;;
16199;SDS011;8207;52.494;4.654;2024-03-22T00:31:22;56.78;;;20.25;;
16199;SDS011;8207;52.494;4.654;2024-03-22T00:33:48;53.83;;;20.48;;
16199;SDS011;8207;52.494;4.654;2024-03-22T00:36:13;59.03;;;21.88;;
16199;SDS011;8207;52.494;4.654;2024-03-22T00:38:38;58.75;;;21.30;;
16199;SDS011;8207;52.494;4.654;2024-03-22T00:41:04;57.63;;;21.02;;
16199;SDS011;8207;52.494;4.654;2024-03-22T00:43:29;60.80;;;21.77;;
16199;SDS011;8207;52.494;4.654;2024-03-22T00:45:55;57.38;;;21.10;;
16199;SDS011;8207;52.494;4.654;2024-03-22T00:48:20;59.10;;;22.15;;
16199;SDS011;8207;52.494;4.654;2024-03-22T00:50:45;57.10;;;22.65;;
16199;SDS011;8207;52.494;4.654;2024-03-22T00:53:11;60.00;;;21.83;;
16199;SDS011;8207;52.494;4.654;2024-03-22T00:55:36;54.33;;;21.88;;
16199;SDS011;8207;52.494;4.654;2024-03-22T00:58:02;52.55;;;20.88;;
16199;SDS011;8207;52.494;4.654;2024-03-22T01:00:27;49.47;;;20.60;;
16199;SDS011;8207;52.494;4.654;2024-03-22T01:02:52;49.25;;;20.58;;
16199;SDS011;8207;52.494;4.654;2024-03-22T01:05:18;56.88;;;19.77;;
16199;SDS011;8207;52.494;4.654;2024-03-22T01:07:43;51.90;;;19.95;;
16199;SDS011;8207;52.494;4.654;2024-03-22T01:10:10;53.63;;;20.58;;
16199;SDS011;8207;52.494;4.654;2024-03-22T01:12:35;56.15;;;21.02;;
16199;SDS011;8207;52.494;4.654;2024-03-22T01:15:01;54.20;;;21.58;;
16199;SDS011;8207;52.494;4.654;2024-03-22T01:17:26;59.42;;;21.02;;
16199;SDS011;8207;52.494;4.654;2024-03-22T01:19:52;51.35;;;20.30;;
16199;SDS011;8207;52.494;4.654;2024-03-22T01:22:17;57.13;;;21.10;;
16199;SDS011;8207;52.494;4.654;2024-03-22T01:24:43;52.08;;;19.80;;
16199;SDS011;8207;52.494;4.654;2024-03-22T01:27:09;56.08;;;21.58;;
16199;SDS011;8207;52.494;4.654;2024-03-22T01:29:34;53.35;;;19.35;;
16199;SDS011;8207;52.494;4.654;2024-03-22T01:32:00;53.83;;;19.35;;
16199;SDS011;8207;52.494;4.654;2024-03-22T01:34:26;48.50;;;18.95;;
16199;SDS011;8207;52.494;4.654;2024-03-22T01:36:51;50.30;;;19.35;;
16199;SDS011;8207;52.494;4.654;2024-03-22T01:39:18;49.30;;;20.00;;
16199;SDS011;8207;52.494;4.654;2024-03-22T01:41:46;48.55;;;19.30;;
16199;SDS011;8207;52.494;4.654;2024-03-22T01:44:11;46.58;;;17.33;;
16199;SDS011;8207;52.494;4.654;2024-03-22T01:46:38;48.85;;;18.17;;
16199;SDS011;8207;52.494;4.654;2024-03-22T01:49:04;41.60;;;16.63;;
16199;SDS011;8207;52.494;4.654;2024-03-22T01:51:30;36.75;;;15.55;;
16199;SDS011;8207;52.494;4.654;2024-03-22T01:53:55;44.50;;;16.48;;
16199;SDS011;8207;52.494;4.654;2024-03-22T01:56:22;43.33;;;16.40;;
16199;SDS011;8207;52.494;4.654;2024-03-22T01:58:48;41.45;;;16.05;;
16199;SDS011;8207;52.494;4.654;2024-03-22T02:01:13;35.92;;;16.20;;
16199;SDS011;8207;52.494;4.654;2024-03-22T02:03:39;35.05;;;14.95;;
16199;SDS011;8207;52.494;4.654;2024-03-22T02:06:04;38.72;;;17.00;;
16199;SDS011;8207;52.494;4.654;2024-03-22T02:08:29;38.85;;;16.95;;
16199;SDS011;8207;52.494;4.654;2024-03-22T02:10:55;39.05;;;16.88;;
16199;SDS011;8207;52.494;4.654;2024-03-22T02:13:20;39.30;;;16.63;;
16199;SDS011;8207;52.494;4.654;2024-03-22T02:15:45;37.60;;;16.83;;
16199;SDS011;8207;52.494;4.654;2024-03-22T02:18:11;42.40;;;16.75;;
16199;SDS011;8207;52.494;4.654;2024-03-22T02:20:36;35.95;;;14.10;;
16199;SDS011;8207;52.494;4.654;2024-03-22T02:23:01;33.47;;;14.55;;
16199;SDS011;8207;52.494;4.654;2024-03-22T02:25:27;39.50;;;14.88;;
16199;SDS011;8207;52.494;4.654;2024-03-22T02:27:52;30.50;;;13.82;;
16199;SDS011;8207;52.494;4.654;2024-03-22T02:30:17;33.95;;;14.02;;
16199;SDS011;8207;52.494;4.654;2024-03-22T02:32:43;34.72;;;13.27;;
16199;SDS011;8207;52.494;4.654;2024-03-22T02:35:08;33.55;;;13.23;;
16199;SDS011;8207;52.494;4.654;2024-03-22T02:37:34;39.60;;;12.90;;
16199;SDS011;8207;52.494;4.654;2024-03-22T02:39:59;37.67;;;13.82;;
16199;SDS011;8207;52.494;4.654;2024-03-22T02:42:25;34.95;;;13.70;;
16199;SDS011;8207;52.494;4.654;2024-03-22T02:44:51;41.53;;;17.35;;
16199;SDS011;8207;52.494;4.654;2024-03-22T02:47:16;45.22;;;16.70;;
16199;SDS011;8207;52.494;4.654;2024-03-22T02:49:41;41.10;;;15.55;;
16199;SDS011;8207;52.494;4.654;2024-03-22T02:52:07;36.03;;;15.02;;
16199;SDS011;8207;52.494;4.654;2024-03-22T02:54:32;40.50;;;16.15;;
16199;SDS011;8207;52.494;4.654;2024-03-22T02:56:57;42.50;;;16.25;;
16199;SDS011;8207;52.494;4.654;2024-03-22T02:59:26;42.22;;;17.10;;
16199;SDS011;8207;52.494;4.654;2024-03-22T03:01:52;43.25;;;15.27;;
16199;SDS011;8207;52.494;4.654;2024-03-22T03:04:17;36.45;;;14.45;;
16199;SDS011;8207;52.494;4.654;2024-03-22T03:06:42;37.42;;;15.57;;
16199;SDS011;8207;52.494;4.654;2024-03-22T03:09:09;43.42;;;15.52;;
16199;SDS011;8207;52.494;4.654;2024-03-22T03:11:35;37.97;;;14.32;;
16199;SDS011;8207;52.494;4.654;2024-03-22T03:14:01;43.40;;;15.27;;
16199;SDS011;8207;52.494;4.654;2024-03-22T03:16:26;42.50;;;16.23;;
16199;SDS011;8207;52.494;4.654;2024-03-22T03:18:51;40.38;;;14.85;;
16199;SDS011;8207;52.494;4.654;2024-03-22T03:21:17;28.67;;;13.50;;
16199;SDS011;8207;52.494;4.654;2024-03-22T03:23:42;38.47;;;13.05;;
16199;SDS011;8207;52.494;4.654;2024-03-22T03:26:07;42.58;;;12.73;;
16199;SDS011;8207;52.494;4.654;2024-03-22T03:28:33;39.75;;;11.52;;
16199;SDS011;8207;52.494;4.654;2024-03-22T03:30:58;41.20;;;11.85;;
16199;SDS011;8207;52.494;4.654;2024-03-22T03:33:23;31.30;;;10.35;;
16199;SDS011;8207;52.494;4.654;2024-03-22T03:35:49;36.08;;;9.70;;
16199;SDS011;8207;52.494;4.654;2024-03-22T03:38:15;42.97;;;9.32;;
16199;SDS011;8207;52.494;4.654;2024-03-22T03:40:40;29.83;;;9.00;;
16199;SDS011;8207;52.494;4.654;2024-03-22T03:43:05;34.65;;;9.43;;
16199;SDS011;8207;52.494;4.654;2024-03-22T03:45:30;26.67;;;7.97;;
16199;SDS011;8207;52.494;4.654;2024-03-22T03:47:56;29.92;;;8.63;;
16199;SDS011;8207;52.494;4.654;2024-03-22T03:50:21;33.05;;;8.35;;
16199;SDS011;8207;52.494;4.654;2024-03-22T03:52:47;28.75;;;7.95;;
16199;SDS011;8207;52.494;4.654;2024-03-22T03:55:12;28.23;;;7.80;;
16199;SDS011;8207;52.494;4.654;2024-03-22T03:57:37;26.58;;;7.57;;
16199;SDS011;8207;52.494;4.654;2024-03-22T04:00:03;31.13;;;7.47;;
16199;SDS011;8207;52.494;4.654;2024-03-22T04:02:29;25.58;;;6.97;;
16199;SDS011;8207;52.494;4.654;2024-03-22T04:04:55;30.30;;;7.95;;
16199;SDS011;8207;52.494;4.654;2024-03-22T04:07:20;27.83;;;7.35;;
16199;SDS011;8207;52.494;4.654;2024-03-22T04:09:46;27.75;;;7.60;;
16199;SDS011;8207;52.494;4.654;2024-03-22T04:12:12;34.33;;;7.38;;
16199;SDS011;8207;52.494;4.654;2024-03-22T04:14:37;27.48;;;7.97;;
16199;SDS011;8207;52.494;4.654;2024-03-22T04:17:03;25.35;;;6.75;;
16199;SDS011;8207;52.494;4.654;2024-03-22T04:19:28;27.20;;;7.47;;
16199;SDS011;8207;52.494;4.654;2024-03-22T04:21:53;29.85;;;6.57;;
16199;SDS011;8207;52.494;4.654;2024-03-22T04:24:19;31.30;;;7.72;;
16199;SDS011;8207;52.494;4.654;2024-03-22T04:26:44;26.17;;;7.22;;
16199;SDS011;8207;52.494;4.654;2024-03-22T04:29:09;26.88;;;7.60;;
16199;SDS011;8207;52.494;4.654;2024-03-22T04:31:35;28.63;;;7.63;;
16199;SDS011;8207;52.494;4.654;2024-03-22T04:34:00;23.67;;;7.07;;
16199;SDS011;8207;52.494;4.654;2024-03-22T04:36:25;29.73;;;7.75;;
16199;SDS011;8207;52.494;4.654;2024-03-22T04:38:51;30.42;;;7.70;;
16199;SDS011;8207;52.494;4.654;2024-03-22T04:41:16;32.35;;;7.68;;
16199;SDS011;8207;52.494;4.654;2024-03-22T04:43:42;29.98;;;8.05;;
16199;SDS011;8207;52.494;4.654;2024-03-22T04:46:08;32.53;;;7.88;;
16199;SDS011;8207;52.494;4.654;2024-03-22T04:48:33;26.83;;;8.00;;
16199;SDS011;8207;52.494;4.654;2024-03-22T04:50:58;28.52;;;7.45;;
16199;SDS011;8207;52.494;4.654;2024-03-22T04:53:24;26.92;;;7.93;;
16199;SDS011;8207;52.494;4.654;2024-03-22T04:55:49;27.23;;;8.25;;
16199;SDS011;8207;52.494;4.654;2024-03-22T04:58:18;31.75;;;7.95;;
16199;SDS011;8207;52.494;4.654;2024-03-22T05:00:46;28.58;;;7.78;;
16199;SDS011;8207;52.494;4.654;2024-03-22T05:03:12;29.80;;;7.47;;
16199;SDS011;8207;52.494;4.654;2024-03-22T05:05:38;27.92;;;7.70;;
16199;SDS011;8207;52.494;4.654;2024-03-22T05:08:04;21.30;;;7.30;;
16199;SDS011;8207;52.494;4.654;2024-03-22T05:10:30;27.50;;;7.45;;
16199;SDS011;8207;52.494;4.654;2024-03-22T05:12:55;27.63;;;7.50;;
16199;SDS011;8207;52.494;4.654;2024-03-22T05:15:21;29.42;;;7.97;;
16199;SDS011;8207;52.494;4.654;2024-03-22T05:17:47;22.73;;;7.78;;
16199;SDS011;8207;52.494;4.654;2024-03-22T05:20:13;28.30;;;7.80;;
16199;SDS011;8207;52.494;4.654;2024-03-22T05:22:38;24.90;;;7.93;;
16199;SDS011;8207;52.494;4.654;2024-03-22T05:25:04;31.40;;;8.48;;
16199;SDS011;8207;52.494;4.654;2024-03-22T05:27:33;31.00;;;8.85;;
16199;SDS011;8207;52.494;4.654;2024-03-22T05:29:59;28.83;;;8.77;;
16199;SDS011;8207;52.494;4.654;2024-03-22T05:32:25;29.75;;;9.55;;
16199;SDS011;8207;52.494;4.654;2024-03-22T05:34:51;27.08;;;8.63;;
16199;SDS011;8207;52.494;4.654;2024-03-22T05:37:17;29.73;;;9.23;;
16199;SDS011;8207;52.494;4.654;2024-03-22T05:39:42;31.95;;;9.55;;
16199;SDS011;8207;52.494;4.654;2024-03-22T05:42:08;25.67;;;9.07;;
16199;SDS011;8207;52.494;4.654;2024-03-22T05:44:33;28.30;;;8.82;;
16199;SDS011;8207;52.494;4.654;2024-03-22T05:46:59;24.98;;;8.70;;
16199;SDS011;8207;52.494;4.654;2024-03-22T05:49:25;28.48;;;8.55;;
16199;SDS011;8207;52.494;4.654;2024-03-22T05:51:50;31.48;;;10.05;;
16199;SDS011;8207;52.494;4.654;2024-03-22T05:54:15;34.25;;;9.38;;
16199;SDS011;8207;52.494;4.654;2024-03-22T05:56:41;27.08;;;10.43;;
16199;SDS011;8207;52.494;4.654;2024-03-22T05:59:06;30.83;;;9.68;;
16199;SDS011;8207;52.494;4.654;2024-03-22T06:01:32;28.23;;;8.65;;
16199;SDS011;8207;52.494;4.654;2024-03-22T06:03:57;27.67;;;10.07;;
16199;SDS011;8207;52.494;4.654;2024-03-22T06:06:23;34.55;;;10.15;;
16199;SDS011;8207;52.494;4.654;2024-03-22T06:08:51;34.90;;;10.63;;
16199;SDS011;8207;52.494;4.654;2024-03-22T06:11:20;32.85;;;10.18;;
16199;SDS011;8207;52.494;4.654;2024-03-22T06:13:50;30.45;;;10.57;;
16199;SDS011;8207;52.494;4.654;2024-03-22T06:16:16;31.48;;;11.13;;
16199;SDS011;8207;52.494;4.654;2024-03-22T06:18:41;33.33;;;10.80;;
16199;SDS011;8207;52.494;4.654;2024-03-22T06:21:06;40.72;;;11.65;;
16199;SDS011;8207;52.494;4.654;2024-03-22T06:23:32;33.70;;;11.55;;
16199;SDS011;8207;52.494;4.654;2024-03-22T06:25:57;36.50;;;10.60;;
16199;SDS011;8207;52.494;4.654;2024-03-22T06:28:23;30.35;;;10.88;;
16199;SDS011;8207;52.494;4.654;2024-03-22T06:30:49;35.90;;;11.27;;
16199;SDS011;8207;52.494;4.654;2024-03-22T06:33:15;29.75;;;10.88;;
16199;SDS011;8207;52.494;4.654;2024-03-22T06:35:40;28.35;;;10.50;;
16199;SDS011;8207;52.494;4.654;2024-03-22T06:38:06;27.35;;;10.13;;
16199;SDS011;8207;52.494;4.654;2024-03-22T06:40:32;29.45;;;10.60;;
16199;SDS011;8207;52.494;4.654;2024-03-22T06:42:57;29.85;;;11.10;;
16199;SDS011;8207;52.494;4.654;2024-03-22T06:45:23;28.70;;;10.38;;
16199;SDS011;8207;52.494;4.654;2024-03-22T06:47:48;25.30;;;10.00;;
16199;SDS011;8207;52.494;4.654;2024-03-22T06:50:14;26.60;;;10.20;;
16199;SDS011;8207;52.494;4.654;2024-03-22T06:52:39;34.85;;;11.40;;
16199;SDS011;8207;52.494;4.654;2024-03-22T06:55:05;28.45;;;10.85;;
16199;SDS011;8207;52.494;4.654;2024-03-22T06:57:31;32.85;;;10.10;;
16199;SDS011;8207;52.494;4.654;2024-03-22T06:59:58;32.17;;;10.18;;
16199;SDS011;8207;52.494;4.654;2024-03-22T07:02:24;24.35;;;9.63;;
16199;SDS011;8207;52.494;4.654;2024-03-22T07:04:49;30.92;;;10.40;;
16199;SDS011;8207;52.494;4.654;2024-03-22T07:07:15;26.63;;;9.32;;
16199;SDS011;8207;52.494;4.654;2024-03-22T07:09:40;30.58;;;9.60;;
16199;SDS011;8207;52.494;4.654;2024-03-22T07:12:05;26.65;;;8.48;;
16199;SDS011;8207;52.494;4.654;2024-03-22T07:14:31;29.33;;;9.35;;
16199;SDS011;8207;52.494;4.654;2024-03-22T07:16:56;23.45;;;8.38;;
16199;SDS011;8207;52.494;4.654;2024-03-22T07:19:21;28.70;;;9.32;;
16199;SDS011;8207;52.494;4.654;2024-03-22T07:21:47;27.77;;;9.02;;
16199;SDS011;8207;52.494;4.654;2024-03-22T07:24:13;37.28;;;9.88;;
16199;SDS011;8207;52.494;4.654;2024-03-22T07:26:38;30.70;;;9.90;;
16199;SDS011;8207;52.494;4.654;2024-03-22T07:29:04;27.67;;;10.45;;
16199;SDS011;8207;52.494;4.654;2024-03-22T07:31:29;33.80;;;10.13;;
16199;SDS011;8207;52.494;4.654;2024-03-22T07:33:55;33.17;;;10.45;;
16199;SDS011;8207;52.494;4.654;2024-03-22T07:36:20;28.83;;;10.82;;
16199;SDS011;8207;52.494;4.654;2024-03-22T07:38:46;25.92;;;10.60;;
16199;SDS011;8207;52.494;4.654;2024-03-22T07:41:13;28.58;;;11.88;;
16199;SDS011;8207;52.494;4.654;2024-03-22T07:43:38;27.02;;;10.40;;
16199;SDS011;8207;52.494;4.654;2024-03-22T07:46:04;29.25;;;11.07;;
16199;SDS011;8207;52.494;4.654;2024-03-22T07:48:29;32.05;;;11.75;;
16199;SDS011;8207;52.494;4.654;2024-03-22T07:50:58;30.50;;;11.20;;
16199;SDS011;8207;52.494;4.654;2024-03-22T07:53:24;32.67;;;11.82;;
16199;SDS011;8207;52.494;4.654;2024-03-22T07:55:49;27.95;;;11.77;;
16199;SDS011;8207;52.494;4.654;2024-03-22T07:58:15;40.05;;;11.85;;
16199;SDS011;8207;52.494;4.654;2024-03-22T08:00:40;39.83;;;13.00;;
16199;SDS011;8207;52.494;4.654;2024-03-22T08:03:05;28.73;;;10.30;;
16199;SDS011;8207;52.494;4.654;2024-03-22T08:05:31;33.53;;;12.07;;
16199;SDS011;8207;52.494;4.654;2024-03-22T08:07:57;38.10;;;12.13;;
16199;SDS011;8207;52.494;4.654;2024-03-22T08:10:22;31.83;;;10.65;;
16199;SDS011;8207;52.494;4.654;2024-03-22T08:12:48;32.08;;;10.60;;
16199;SDS011;8207;52.494;4.654;2024-03-22T08:15:13;31.42;;;10.75;;
16199;SDS011;8207;52.494;4.654;2024-03-22T08:17:39;34.30;;;11.45;;
16199;SDS011;8207;52.494;4.654;2024-03-22T08:20:05;29.63;;;9.93;;
16199;SDS011;8207;52.494;4.654;2024-03-22T08:22:31;31.25;;;11.23;;
16199;SDS011;8207;52.494;4.654;2024-03-22T08:24:56;36.17;;;12.00;;
16199;SDS011;8207;52.494;4.654;2024-03-22T08:27:24;31.20;;;11.05;;
16199;SDS011;8207;52.494;4.654;2024-03-22T08:29:49;28.20;;;11.32;;
16199;SDS011;8207;52.494;4.654;2024-03-22T08:32:15;30.55;;;11.15;;
16199;SDS011;8207;52.494;4.654;2024-03-22T08:34:40;28.17;;;11.60;;
16199;SDS011;8207;52.494;4.654;2024-03-22T08:37:06;35.60;;;12.52;;
16199;SDS011;8207;52.494;4.654;2024-03-22T08:39:32;35.83;;;12.10;;
16199;SDS011;8207;52.494;4.654;2024-03-22T08:41:58;31.48;;;13.07;;
16199;SDS011;8207;52.494;4.654;2024-03-22T08:44:23;32.20;;;12.32;;
16199;SDS011;8207;52.494;4.654;2024-03-22T08:46:48;36.15;;;12.35;;
16199;SDS011;8207;52.494;4.654;2024-03-22T08:49:14;35.53;;;12.32;;
16199;SDS011;8207;52.494;4.654;2024-03-22T08:51:40;37.58;;;12.75;;
16199;SDS011;8207;52.494;4.654;2024-03-22T08:54:06;33.75;;;12.85;;
16199;SDS011;8207;52.494;4.654;2024-03-22T08:56:31;28.70;;;12.85;;
16199;SDS011;8207;52.494;4.654;2024-03-22T08:58:57;33.58;;;12.75;;
16199;SDS011;8207;52.494;4.654;2024-03-22T09:01:22;28.90;;;13.30;;
16199;SDS011;8207;52.494;4.654;2024-03-22T09:03:48;30.48;;;12.88;;
16199;SDS011;8207;52.494;4.654;2024-03-22T09:06:16;30.98;;;13.98;;
16199;SDS011;8207;52.494;4.654;2024-03-22T09:08:41;28.20;;;14.27;;
16199;SDS011;8207;52.494;4.654;2024-03-22T09:11:06;29.42;;;14.60;;
16199;SDS011;8207;52.494;4.654;2024-03-22T09:13:32;30.55;;;14.68;;
16199;SDS011;8207;52.494;4.654;2024-03-22T09:15:59;33.65;;;15.13;;
16199;SDS011;8207;52.494;4.654;2024-03-22T09:18:25;31.23;;;14.93;;
16199;SDS011;8207;52.494;4.654;2024-03-22T09:20:52;32.17;;;15.55;;
16199;SDS011;8207;52.494;4.654;2024-03-22T09:23:18;31.60;;;14.60;;
16199;SDS011;8207;52.494;4.654;2024-03-22T09:25:43;34.05;;;15.27;;
16199;SDS011;8207;52.494;4.654;2024-03-22T09:28:08;34.33;;;15.38;;
16199;SDS011;8207;52.494;4.654;2024-03-22T09:30:40;34.60;;;16.77;;
16199;SDS011;8207;52.494;4.654;2024-03-22T09:33:06;36.88;;;15.45;;
16199;SDS011;8207;52.494;4.654;2024-03-22T09:35:35;35.63;;;16.15;;
16199;SDS011;8207;52.494;4.654;2024-03-22T09:38:01;35.30;;;17.55;;
16199;SDS011;8207;52.494;4.654;2024-03-22T09:40:27;32.58;;;15.65;;
16199;SDS011;8207;52.494;4.654;2024-03-22T09:42:53;35.33;;;16.42;;
16199;SDS011;8207;52.494;4.654;2024-03-22T09:45:19;37.42;;;16.63;;
16199;SDS011;8207;52.494;4.654;2024-03-22T09:47:45;31.90;;;16.58;;
16199;SDS011;8207;52.494;4.654;2024-03-22T09:50:13;33.05;;;16.98;;
16199;SDS011;8207;52.494;4.654;2024-03-22T09:52:39;42.50;;;16.95;;
16199;SDS011;8207;52.494;4.654;2024-03-22T09:55:07;39.55;;;16.48;;
16199;SDS011;8207;52.494;4.654;2024-03-22T09:57:34;37.38;;;16.40;;
16199;SDS011;8207;52.494;4.654;2024-03-22T10:00:02;32.85;;;15.18;;
16199;SDS011;8207;52.494;4.654;2024-03-22T10:02:28;35.88;;;15.82;;
16199;SDS011;8207;52.494;4.654;2024-03-22T10:04:53;41.72;;;16.38;;
16199;SDS011;8207;52.494;4.654;2024-03-22T10:07:21;37.45;;;16.63;;
16199;SDS011;8207;52.494;4.654;2024-03-22T10:09:47;39.15;;;17.13;;
16199;SDS011;8207;52.494;4.654;2024-03-22T10:12:12;32.28;;;15.95;;
16199;SDS011;8207;52.494;4.654;2024-03-22T10:14:37;35.15;;;16.42;;
16199;SDS011;8207;52.494;4.654;2024-03-22T10:17:05;39.30;;;16.83;;
16199;SDS011;8207;52.494;4.654;2024-03-22T10:19:30;35.03;;;15.30;;
16199;SDS011;8207;52.494;4.654;2024-03-22T10:21:59;42.03;;;16.65;;
16199;SDS011;8207;52.494;4.654;2024-03-22T10:24:28;35.28;;;15.90;;
16199;SDS011;8207;52.494;4.654;2024-03-22T10:26:54;40.10;;;16.52;;
16199;SDS011;8207;52.494;4.654;2024-03-22T10:29:20;39.30;;;15.75;;
16199;SDS011;8207;52.494;4.654;2024-03-22T10:31:47;35.78;;;16.33;;
16199;SDS011;8207;52.494;4.654;2024-03-22T10:34:13;37.60;;;15.70;;
16199;SDS011;8207;52.494;4.654;2024-03-22T10:36:39;38.10;;;16.67;;
16199;SDS011;8207;52.494;4.654;2024-03-22T10:39:05;32.80;;;15.57;;
16199;SDS011;8207;52.494;4.654;2024-03-22T10:41:31;35.83;;;15.25;;
16199;SDS011;8207;52.494;4.654;2024-03-22T10:43:57;32.58;;;15.82;;
16199;SDS011;8207;52.494;4.654;2024-03-22T10:46:23;33.10;;;15.32;;
16199;SDS011;8207;52.494;4.654;2024-03-22T10:48:55;37.38;;;15.30;;
16199;SDS011;8207;52.494;4.654;2024-03-22T10:51:21;33.55;;;14.52;;
16199;SDS011;8207;52.494;4.654;2024-03-22T10:53:49;43.47;;;15.75;;
16199;SDS011;8207;52.494;4.654;2024-03-22T10:56:16;35.35;;;15.35;;
16199;SDS011;8207;52.494;4.654;2024-03-22T10:58:42;35.30;;;16.48;;
16199;SDS011;8207;52.494;4.654;2024-03-22T11:01:11;36.88;;;14.07;;
16199;SDS011;8207;52.494;4.654;2024-03-22T11:03:50;37.22;;;14.68;;
16199;SDS011;8207;52.494;4.654;2024-03-22T11:06:19;34.35;;;14.77;;
16199;SDS011;8207;52.494;4.654;2024-03-22T11:08:51;38.78;;;14.82;;
16199;SDS011;8207;52.494;4.654;2024-03-22T11:11:17;37.53;;;16.67;;
16199;SDS011;8207;52.494;4.654;2024-03-22T11:13:46;31.77;;;13.95;;
16199;SDS011;8207;52.494;4.654;2024-03-22T11:16:12;35.10;;;14.90;;
16199;SDS011;8207;52.494;4.654;2024-03-22T11:18:39;30.52;;;13.82;;
16199;SDS011;8207;52.494;4.654;2024-03-22T11:21:04;34.63;;;13.75;;
16199;SDS011;8207;52.494;4.654;2024-03-22T11:23:32;30.33;;;13.45;;
16199;SDS011;8207;52.494;4.654;2024-03-22T11:25:58;30.92;;;13.93;;
16199;SDS011;8207;52.494;4.654;2024-03-22T11:28:24;30.85;;;13.15;;
16199;SDS011;8207;52.494;4.654;2024-03-22T11:30:49;33.65;;;13.73;;
16199;SDS011;8207;52.494;4.654;2024-03-22T11:33:15;24.75;;;12.25;;
16199;SDS011;8207;52.494;4.654;2024-03-22T11:35:40;29.75;;;12.68;;
16199;SDS011;8207;52.494;4.654;2024-03-22T11:38:06;28.58;;;11.88;;
16199;SDS011;8207;52.494;4.654;2024-03-22T11:40:31;26.15;;;12.15;;
16199;SDS011;8207;52.494;4.654;2024-03-22T11:42:58;29.63;;;12.63;;
16199;SDS011;8207;52.494;4.654;2024-03-22T11:45:25;27.02;;;11.98;;
16199;SDS011;8207;52.494;4.654;2024-03-22T11:47:52;31.70;;;12.98;;
16199;SDS011;8207;52.494;4.654;2024-03-22T11:50:18;24.80;;;11.13;;
16199;SDS011;8207;52.494;4.654;2024-03-22T11:52:44;29.08;;;11.45;;
16199;SDS011;8207;52.494;4.654;2024-03-22T11:55:12;27.98;;;11.48;;
16199;SDS011;8207;52.494;4.654;2024-03-22T11:57:38;25.02;;;12.10;;
16199;SDS011;8207;52.494;4.654;2024-03-22T12:00:03;26.00;;;11.65;;
16199;SDS011;8207;52.494;4.654;2024-03-22T12:02:37;27.17;;;10.98;;
16199;SDS011;8207;52.494;4.654;2024-03-22T12:05:04;28.52;;;12.18;;
16199;SDS011;8207;52.494;4.654;2024-03-22T12:07:30;27.23;;;12.07;;
16199;SDS011;8207;52.494;4.654;2024-03-22T12:09:56;29.20;;;11.45;;
16199;SDS011;8207;52.494;4.654;2024-03-22T12:12:22;24.90;;;11.80;;
16199;SDS011;8207;52.494;4.654;2024-03-22T12:14:50;23.35;;;11.48;;
16199;SDS011;8207;52.494;4.654;2024-03-22T12:17:18;28.05;;;12.20;;
16199;SDS011;8207;52.494;4.654;2024-03-22T12:19:44;26.45;;;12.73;;
16199;SDS011;8207;52.494;4.654;2024-03-22T12:22:09;28.00;;;12.15;;
16199;SDS011;8207;52.494;4.654;2024-03-22T12:24:35;27.60;;;12.55;;
16199;SDS011;8207;52.494;4.654;2024-03-22T12:27:01;27.35;;;12.27;;
16199;SDS011;8207;52.494;4.654;2024-03-22T12:29:26;30.38;;;11.65;;
16199;SDS011;8207;52.494;4.654;2024-03-22T12:31:51;24.48;;;11.15;;
16199;SDS011;8207;52.494;4.654;2024-03-22T12:34:17;25.95;;;11.93;;
16199;SDS011;8207;52.494;4.654;2024-03-22T12:36:42;30.13;;;13.20;;
16199;SDS011;8207;52.494;4.654;2024-03-22T12:39:08;27.55;;;11.63;;
16199;SDS011;8207;52.494;4.654;2024-03-22T12:41:33;29.30;;;12.63;;
16199;SDS011;8207;52.494;4.654;2024-03-22T12:43:59;29.80;;;13.88;;
16199;SDS011;8207;52.494;4.654;2024-03-22T12:46:25;31.38;;;12.45;;
16199;SDS011;8207;52.494;4.654;2024-03-22T12:48:51;30.10;;;12.80;;
16199;SDS011;8207;52.494;4.654;2024-03-22T12:51:16;28.83;;;13.45;;
16199;SDS011;8207;52.494;4.654;2024-03-22T12:53:42;28.48;;;12.70;;
16199;SDS011;8207;52.494;4.654;2024-03-22T12:56:07;26.77;;;12.18;;
16199;SDS011;8207;52.494;4.654;2024-03-22T12:58:33;25.63;;;10.98;;
16199;SDS011;8207;52.494;4.654;2024-03-22T13:00:58;26.05;;;9.52;;
16199;SDS011;8207;52.494;4.654;2024-03-22T13:03:26;25.27;;;8.50;;
16199;SDS011;8207;52.494;4.654;2024-03-22T13:05:51;21.05;;;8.15;;
16199;SDS011;8207;52.494;4.654;2024-03-22T13:08:17;17.60;;;6.88;;
16199;SDS011;8207;52.494;4.654;2024-03-22T13:10:42;20.20;;;6.68;;
16199;SDS011;8207;52.494;4.654;2024-03-22T13:13:09;16.02;;;6.30;;
16199;SDS011;8207;52.494;4.654;2024-03-22T13:15:35;21.50;;;6.43;;
16199;SDS011;8207;52.494;4.654;2024-03-22T13:18:04;18.20;;;5.95;;
16199;SDS011;8207;52.494;4.654;2024-03-22T13:20:30;16.40;;;5.60;;
16199;SDS011;8207;52.494;4.654;2024-03-22T13:22:55;22.55;;;6.55;;
16199;SDS011;8207;52.494;4.654;2024-03-22T13:25:21;15.75;;;5.05;;
16199;SDS011;8207;52.494;4.654;2024-03-22T13:27:47;18.17;;;4.45;;
16199;SDS011;8207;52.494;4.654;2024-03-22T13:30:12;15.75;;;4.20;;
16199;SDS011;8207;52.494;4.654;2024-03-22T13:32:39;14.38;;;3.85;;
16199;SDS011;8207;52.494;4.654;2024-03-22T13:35:05;17.92;;;4.13;;
16199;SDS011;8207;52.494;4.654;2024-03-22T13:37:31;13.85;;;3.70;;
16199;SDS011;8207;52.494;4.654;2024-03-22T13:39:57;14.30;;;4.03;;
16199;SDS011;8207;52.494;4.654;2024-03-22T13:42:22;18.30;;;3.22;;
16199;SDS011;8207;52.494;4.654;2024-03-22T13:44:48;13.88;;;3.15;;
16199;SDS011;8207;52.494;4.654;2024-03-22T13:47:13;13.90;;;3.10;;
16199;SDS011;8207;52.494;4.654;2024-03-22T13:49:38;20.20;;;3.53;;
16199;SDS011;8207;52.494;4.654;2024-03-22T13:52:06;14.90;;;2.80;;
16199;SDS011;8207;52.494;4.654;2024-03-22T13:54:32;14.43;;;3.13;;
16199;SDS011;8207;52.494;4.654;2024-03-22T13:56:57;17.73;;;3.17;;
16199;SDS011;8207;52.494;4.654;2024-03-22T13:59:23;16.38;;;3.08;;
16199;SDS011;8207;52.494;4.654;2024-03-22T14:01:48;17.45;;;3.15;;
16199;SDS011;8207;52.494;4.654;2024-03-22T14:04:14;19.02;;;3.45;;
16199;SDS011;8207;52.494;4.654;2024-03-22T14:06:40;18.25;;;3.38;;
16199;SDS011;8207;52.494;4.654;2024-03-22T14:09:06;14.38;;;3.15;;
16199;SDS011;8207;52.494;4.654;2024-03-22T14:11:35;16.85;;;3.13;;
16199;SDS011;8207;52.494;4.654;2024-03-22T14:14:01;18.77;;;3.05;;
16199;SDS011;8207;52.494;4.654;2024-03-22T14:16:26;21.10;;;3.28;;
16199;SDS011;8207;52.494;4.654;2024-03-22T14:18:51;16.38;;;3.45;;
16199;SDS011;8207;52.494;4.654;2024-03-22T14:21:17;20.25;;;3.08;;
16199;SDS011;8207;52.494;4.654;2024-03-22T14:23:46;18.67;;;2.40;;
16199;SDS011;8207;52.494;4.654;2024-03-22T14:26:13;22.63;;;2.95;;
16199;SDS011;8207;52.494;4.654;2024-03-22T14:28:38;18.83;;;3.25;;
16199;SDS011;8207;52.494;4.654;2024-03-22T14:31:05;17.02;;;3.33;;